Weather observations for the past three days for
Langdon
Imperial (Metric)
Date Time (cdt) Wind (mph) Vis. (mi.) Weather Sky Cond. Temperature (ºF) Relative Humidity Wind Chill (°F) Heat Index (°F) Pressure Precipitation (in)
Air Dwpt 6 hour altimeter (in) sea level (mb) 1 hr 3 hr 6 hr
Max. Min.
02 23:35 E 8 10.00 Fair CLR 62.6 62.6 100% 29.93 0.0
02 23:15 E 5 10.00 Fair CLR 60.8 60.8 100% 29.93 0.0
02 22:55 E 8 10.00 Fair CLR 62.6 62.6 100% 29.93 0.0
02 22:35 E 7 10.00 Fair CLR 62.6 62.6 100% 29.94 0.0
02 22:15 E 9 10.00 Fair CLR 62.6 62.6 100% 29.94 0.0
02 21:55 E 6 10.00 Fair CLR 62.6 62.6 100% 29.94 0.0
02 21:35 E 7 10.00 Fair CLR 62.6 62.6 100% 29.94 0.0
02 21:15 E 7 9.00 Fair CLR 64.4 60.8 88% 29.94 0.0
02 20:55 E 9 10.00 Fair CLR 66.2 59 78% 29.93 0.0
02 20:35 E 8 9.00 Fair CLR 68 57.2 69% 29.93 0.0
02 20:15 E 10 10.00 Fair CLR 68 57.2 69% 29.92 0.0
02 19:55 E 9 10.00 Fair CLR 69.8 53.6 57% 29.92 0.0
02 19:35 E 9 9.00 Fair CLR 71.6 53.6 53% 29.92 0.0
02 19:15 E 12 10.00 Fair CLR 73.4 51.8 47% 29.92 0.0
02 18:55 E 10 10.00 Fair CLR 73.4 50 44% 29.92 0.0
02 18:35 E 13 10.00 Fair CLR 75.2 50 41% 78 29.92 0.0
02 18:15 E 12 10.00 Fair CLR 75.2 50 41% 78 29.92 0.0
02 17:55 E 13 10.00 Fair CLR 75.2 50 41% 78 29.92 0.0
02 17:35 E 9 10.00 A Few Clouds FEW050 75.2 50 41% 78 29.92 0.0
02 17:15 E 7 G 16 10.00 A Few Clouds FEW050 77 50 39% 78 29.93 0.0
02 16:55 E 9 10.00 A Few Clouds FEW050 77 48.2 36% 78 29.93 0.0
02 16:35 E 7 10.00 Fair CLR 77 48.2 36% 78 29.93 0.0
02 16:15 E 8 10.00 A Few Clouds FEW050 77 48.2 36% 78 29.93 0.0
02 15:55 SE 5 10.00 Fair CLR 77 48.2 36% 78 29.93 0.0
02 15:35 Calm 10.00 Fair CLR 75.2 48.2 39% 77 29.94 0.0
02 15:15 Calm 10.00 Fair CLR 77 48.2 36% 78 29.94 0.0
02 14:55 Vrbl 7 G 13 10.00 Fair CLR 77 48.2 36% 78 29.95 0.0
02 14:35 E 5 G 13 10.00 Fair CLR 75.2 48.2 39% 77 29.95 0.0
02 14:15 Calm 10.00 A Few Clouds FEW043 73.4 50 44% 29.96 0.0
02 13:55 Calm 10.00 Partly Cloudy SCT043 75.2 50 41% 78 29.96 0.0
02 13:35 SE 8 10.00 Partly Cloudy SCT041 75.2 50 41% 78 29.97 0.0
02 13:15 Vrbl 5 G 13 10.00 A Few Clouds FEW041 75.2 50 41% 78 29.97 0.0
02 12:55 S 6 10.00 Partly Cloudy SCT041 71.6 51.8 50% 29.97 0.0
02 12:35 Vrbl 5 10.00 Partly Cloudy SCT041 71.6 50 47% 29.97 0.0
02 12:15 S 6 10.00 A Few Clouds FEW040 73.4 48.2 41% 29.98 0.0
02 11:55 S 7 10.00 A Few Clouds FEW039 73.4 50 44% 29.98 0.0
02 11:35 Vrbl 5 10.00 Fair CLR 73.4 51.8 47% 29.98 0.0
02 11:15 S 6 10.00 Fair CLR 71.6 53.6 53% 29.98 0.0
02 10:55 SE 6 10.00 Fair CLR 71.6 55.4 57% 29.98 0.0
02 10:35 SE 6 10.00 Fair CLR 69.8 55.4 60% 29.98 0.0
02 10:15 Vrbl 5 10.00 Fair CLR 69.8 59 69% 29.98 0.0
02 09:55 SE 3 10.00 Fair CLR 68 60.8 78% 29.99 0.0
02 09:35 S 3 10.00 Fair CLR 66.2 66.2 100% 29.99 0.0
02 09:15 SE 3 10.00 Fair CLR 64.4 64.4 100% 29.99 0.0
02 08:55 Calm 9.00 Fair CLR 60.8 60.8 100% 29.99 0.0
02 08:35 Calm 8.00 Fair CLR 59 59 100% 29.99 0.0
02 08:15 Calm 8.00 Fair CLR 57.2 57.2 100% 29.99 0.0
02 07:55 E 3 8.00 Fair CLR 55.4 55.4 100% 29.98 0.0
02 07:35 Calm 9.00 Fair CLR 53.6 53.6 100% 29.98 0.0
02 07:15 Calm 8.00 Fair CLR 51.8 51.8 100% 29.98 0.0
02 06:55 Calm 7.00 Fair CLR 51.8 51.8 100% 29.98 0.0
02 06:35 Calm 8.00 Fair CLR 51.8 51.8 100% 29.98 0.0
02 06:15 SE 5 6.00 Fog/Mist CLR 51.8 51.8 100% 29.98 0.0
02 05:55 Calm 8.00 Fair CLR 50 50 100% 29.97 0.0
02 05:35 Calm 8.00 Fair CLR 50 50 100% 29.97 0.0
02 05:15 Calm 10.00 Fair CLR 51.8 51.8 100% 29.97 0.0
02 04:55 Calm 9.00 Fair CLR 50 50 100% 29.97 0.0
02 04:35 Calm 8.00 Fair CLR 51.8 51.8 100% 29.97 0.0
02 04:15 Calm 10.00 Fair CLR 53.6 53.6 100% 29.97 0.0
02 03:55 Calm 10.00 Fair CLR 53.6 53.6 100% 29.97 0.0
02 03:35 Calm 10.00 Fair CLR 53.6 53.6 100% 29.97 0.0
02 03:15 Calm 10.00 Fair CLR 53.6 53.6 100% 29.97 0.0
02 02:55 Calm 10.00 Fair CLR 53.6 53.6 100% 29.97 0.0
02 02:35 Calm 10.00 Fair CLR 55.4 55.4 100% 29.96 0.0
02 02:15 Calm 10.00 Fair CLR 55.4 55.4 100% 29.96 0.0
02 01:55 Calm 10.00 Fair CLR 53.6 53.6 100% 29.96 0.0
02 01:35 Calm 10.00 A Few Clouds FEW048 55.4 55.4 100% 29.96 0.0
02 01:15 Calm 10.00 A Few Clouds FEW049 55.4 55.4 100% 29.97 0.0
02 00:55 Calm 10.00 Fair CLR 57.2 57.2 100% 29.97 0.0
02 00:35 Calm 10.00 Fair CLR 57.2 57.2 100% 29.97 0.0
02 00:15 Calm 10.00 Fair CLR 57.2 57.2 100% 29.96 0.0
01 23:55 Calm 10.00 Fair CLR 57.2 57.2 100% 29.96 0.0
01 23:35 SE 5 10.00 Fair CLR 57.2 57.2 100% 29.96 0.0
01 23:15 Calm 10.00 Fair CLR 57.2 57.2 100% 29.96 0.0
01 22:55 Calm 10.00 Fair CLR 59 59 100% 29.96 0.0
01 22:35 Calm 10.00 Fair CLR 59 59 100% 29.96 0.0
01 22:15 Calm 10.00 Partly Cloudy SCT050 59 59 100% 29.96 0.0
01 21:55 Calm 10.00 Partly Cloudy SCT050 60.8 60.8 100% 29.96 0.0
01 21:35 Calm 10.00 Fair CLR 60.8 60.8 100% 29.95 0.0
01 21:15 Calm 10.00 Fair CLR 60.8 60.8 100% 29.95 0.0
01 20:55 Calm 10.00 Fair CLR 64.4 64.4 100% 29.94 0.0
01 20:35 N 3 10.00 Fair CLR 66.2 64.4 94% 29.94 0.0
01 20:15 N 5 8.00 Fair CLR 66.2 64.4 94% 29.94 0.0
01 19:55 N 5 9.00 Fair CLR 66.2 62.6 88% 29.94 0.0
01 19:35 N 5 9.00 Fair CLR 68 60.8 78% 29.94 0.0
01 19:15 N 7 10.00 Fair CLR 69.8 55.4 60% 29.93 0.0
01 18:55 N 12 10.00 Fair CLR 71.6 53.6 53% 29.93 0.0
01 18:35 N 9 10.00 Fair CLR 73.4 50 44% 29.93 0.0
01 18:15 NW 10 10.00 Fair CLR 73.4 50 44% 29.93 0.0
01 17:55 NW 9 G 16 10.00 Fair CLR 75.2 50 41% 78 29.93 0.0
01 17:35 NW 12 G 20 10.00 A Few Clouds FEW050 FEW055 75.2 48.2 39% 77 29.93 0.0
01 17:15 NW 12 10.00 Fair CLR 75.2 50 41% 78 29.93 0.0
01 16:55 W 10 G 16 10.00 Fair CLR 75.2 50 41% 78 29.94 0.0
01 16:35 NW 14 10.00 A Few Clouds FEW050 73.4 50 44% 29.93 0.0
01 16:15 NW 14 G 21 10.00 A Few Clouds FEW049 77 48.2 36% 78 29.92 0.0
01 15:55 W 16 G 23 10.00 Fair CLR 75.2 46.4 36% 77 29.92 0.0
01 15:35 W 17 G 25 10.00 Fair CLR 77 44.6 32% 78 29.92 0.0
01 15:15 NW 17 G 23 10.00 Fair CLR 77 46.4 34% 78 29.92 0.0
01 14:55 NW 16 G 23 10.00 Fair CLR 77 44.6 32% 78 29.92 0.0
01 14:35 NW 18 G 26 10.00 Fair CLR 77 44.6 32% 78 29.92 0.0
01 14:15 NW 20 10.00 Fair CLR 77 44.6 32% 78 29.92 0.0
01 13:55 NW 16 G 23 10.00 Fair CLR 77 46.4 34% 78 29.93 0.0
01 13:35 W 18 10.00 Fair CLR 75.2 46.4 36% 77 29.93 0.0
01 13:15 NW 16 G 23 10.00 Fair CLR 75.2 48.2 39% 77 29.93 0.0
01 12:55 NW 22 10.00 Fair and Breezy CLR 75.2 48.2 39% 77 29.92 0.0
01 12:35 W 18 G 25 10.00 Fair CLR 73.4 50 44% 29.93 0.0
01 12:15 W 17 G 25 10.00 A Few Clouds FEW040 73.4 51.8 47% 29.93 0.0
01 11:35 W 15 G 28 10.00 Fair CLR 71.6 53.6 53% 29.93 0.0
01 11:15 W 20 G 25 10.00 Fair CLR 69.8 53.6 57% 29.93 0.0
01 10:55 W 17 10.00 Fair CLR 69.8 55.4 60% 29.93 0.0
01 10:35 W 17 10.00 Fair CLR 68 59 73% 29.93 0.0
01 10:15 W 14 G 23 10.00 Fair CLR 66.2 66.2 100% 29.93 0.0
01 09:55 W 20 10.00 Fair CLR 64.4 64.4 100% 29.93 0.0
01 09:35 W 18 G 24 10.00 Fair CLR 64.4 64.4 100% 29.93 0.0
01 09:15 W 15 G 21 10.00 Fair CLR 62.6 62.6 100% 29.92 0.0
01 08:55 W 15 10.00 Fair CLR 60.8 60.8 100% 29.93 0.0
01 08:35 W 14 G 21 10.00 Fair CLR 60.8 60.8 100% 29.92 0.0
01 08:15 SW 13 G 21 10.00 Fair CLR 59 59 100% 29.92 0.0
01 07:55 SW 14 10.00 Fair CLR 57.2 57.2 100% 29.91 0.0
01 07:35 W 15 G 22 10.00 Fair CLR 57.2 57.2 100% 29.9 0.0
01 07:15 SW 14 10.00 Fair CLR 55.4 55.4 100% 29.89 0.0
01 06:55 W 15 G 21 10.00 Fair CLR 55.4 55.4 100% 29.89 0.0
01 06:35 W 14 G 20 10.00 Fair CLR 55.4 55.4 100% 29.88 0.0
01 06:15 SW 14 10.00 Fair CLR 55.4 55.4 100% 29.88 0.0
01 05:55 SW 13 10.00 Fair CLR 55.4 55.4 100% 29.88 0.0
01 05:35 SW 13 10.00 Fair CLR 57.2 57.2 100% 29.88 0.0
01 05:15 SW 13 10.00 Fair CLR 55.4 55.4 100% 29.87 0.0
01 04:55 SW 12 10.00 Fair CLR 55.4 55.4 100% 29.87 0.0
01 04:35 SW 10 10.00 Fair CLR 57.2 57.2 100% 29.87 0.0
01 04:15 W 10 10.00 Fair CLR 57.2 57.2 100% 29.86 0.0
01 03:55 W 9 10.00 Fair CLR 57.2 57.2 100% 29.86 0.0
01 03:35 W 10 10.00 Fair CLR 55.4 55.4 100% 29.85 0.0
01 03:15 SW 7 10.00 Fair CLR 57.2 57.2 100% 29.85 0.0
01 02:55 W 12 10.00 Fair CLR 59 59 100% 29.84 0.0
01 02:35 W 14 G 20 10.00 Fair CLR 59 59 100% 29.85 0.0
01 02:15 W 15 G 22 10.00 Fair CLR 60.8 60.8 100% 29.85 0.0
01 01:55 W 14 10.00 Fair CLR 60.8 60.8 100% 29.84 0.0
01 01:35 W 15 G 21 10.00 Fair CLR 60.8 60.8 100% 29.84 0.0
01 01:15 W 16 10.00 Fair CLR 60.8 60.8 100% 29.84 0.0
01 00:55 W 16 G 23 10.00 Fair CLR 60.8 60.8 100% 29.84 0.0
01 00:35 W 20 G 29 10.00 Fair CLR 62.6 62.6 100% 29.83 0.0
01 00:15 W 17 10.00 Fair CLR 62.6 62.6 100% 29.83 0.0
31 23:55 W 18 G 24 10.00 Fair CLR 62.6 62.6 100% 29.83 0.0
31 23:35 W 16 G 22 10.00 Fair CLR 62.6 62.6 100% 29.82 0.0
31 23:15 W 15 G 25 10.00 Fair CLR 62.6 62.6 100% 29.82 0.0
31 22:55 W 17 10.00 Fair CLR 62.6 62.6 100% 29.82 0.0
31 22:35 W 15 G 22 10.00 Fair CLR 62.6 62.6 100% 29.82 0.0
31 22:15 W 15 10.00 Fair CLR 62.6 62.6 100% 29.82 0.0
31 21:55 W 17 10.00 Fair CLR 62.6 62.6 100% 29.81 0.0
31 21:35 W 14 G 20 10.00 Fair CLR 64.4 60.8 88% 29.8 0.0
31 21:15 W 18 10.00 Fair CLR 66.2 57.2 73% 29.8 0.0
31 20:55 W 18 G 26 10.00 Fair CLR 66.2 55.4 68% 29.79 0.0
31 20:35 W 17 G 28 10.00 Fair CLR 66.2 53.6 64% 29.78 0.0
31 20:15 W 21 G 30 10.00 Fair and Breezy CLR 68 51.8 56% 29.77 0.0
31 19:55 W 22 G 32 10.00 Fair and Breezy CLR 69.8 50 50% 29.76 0.0
31 19:35 W 26 G 39 10.00 Fair and Windy CLR 69.8 51.8 53% 29.75 0.0
31 19:15 W 26 G 39 10.00 Fair and Windy CLR 71.6 50 47% 29.74 0.0
31 18:55 W 24 G 36 10.00 Fair and Breezy CLR 71.6 50 47% 29.73 0.0
31 18:35 W 29 G 40 10.00 Fair and Windy CLR 73.4 50 44% 29.72 0.0
31 18:15 W 26 G 39 10.00 A Few Clouds and Windy FEW075 75.2 50 41% 78 29.71 0.0
31 17:55 W 31 G 45 10.00 A Few Clouds and Windy FEW070 77 44.6 32% 78 29.7 0.0
31 17:35 W 32 G 40 10.00 Partly Cloudy and Windy SCT080 78.8 42.8 28% 78 29.7 0.0
31 17:15 W 24 G 48 10.00 Mostly Cloudy and Breezy BKN075 77 42.8 30% 78 29.7 0.0
31 16:55 W 32 G 40 10.00 Mostly Cloudy and Windy BKN075 77 41 28% 78 29.69 0.0
31 16:35 SW 37 G 45 9.00 Partly Cloudy and Windy SCT070 78.8 41 26% 78 29.68 0.0
31 16:15 SW 32 G 47 10.00 Partly Cloudy and Windy SCT070 77 39.2 26% 77 29.69 0.0
31 15:55 SW 26 G 48 9.00 A Few Clouds and Windy FEW070 78.8 41 26% 78 29.7 0.0
31 15:35 SW 31 G 52 9.00 Fair and Windy CLR 78.8 41 26% 78 29.7 0.0
31 15:15 SW 37 G 49 9.00 Fair and Windy CLR 77 41 28% 78 29.7 0.0
31 14:55 SW 37 G 47 9.00 Fair and Windy CLR 77 41 28% 78 29.7 0.0
31 14:35 SW 36 G 45 10.00 Fair and Windy CLR 77 39.2 26% 77 29.7 0.0
31 14:15 SW 35 G 48 10.00 Fair and Windy CLR 77 39.2 26% 77 29.71 0.0
31 13:55 SW 36 G 47 10.00 Fair and Windy CLR 77 37.4 24% 77 29.72 0.0
31 13:35 SW 35 G 46 9.00 Fair and Windy CLR 77 37.4 24% 77 29.72 0.0
31 13:15 SW 30 G 43 9.00 Fair and Windy CLR 77 37.4 24% 77 29.73 0.0
31 12:55 SW 30 G 41 9.00 Fair and Windy CLR 75.2 39.2 27% 77 29.75 0.0
31 12:35 SW 30 G 43 10.00 Fair and Windy CLR 75.2 39.2 27% 77 29.76 0.0
31 12:15 SW 25 G 36 10.00 Fair and Breezy CLR 73.4 42.8 33% 29.77 0.0
31 11:55 SW 28 G 33 10.00 Fair and Windy CLR 71.6 42.8 36% 29.78 0.0
31 11:35 SW 26 G 36 10.00 Fair and Windy CLR 71.6 46.4 41% 29.78 0.0
31 11:15 SW 21 G 29 10.00 Fair and Breezy CLR 69.8 55.4 60% 29.79 0.0
31 10:55 SW 15 G 30 10.00 Fair CLR 68 59 73% 29.8 0.0
31 10:35 SW 21 G 29 10.00 Fair and Breezy CLR 66.2 66.2 100% 29.81 0.0
31 10:15 SW 21 G 30 10.00 Fair and Breezy CLR 66.2 66.2 100% 29.81 0.0
31 09:55 SW 10 G 24 10.00 Fair CLR 66.2 66.2 100% 29.81 0.0
31 09:35 SW 15 G 22 10.00 Fair CLR 64.4 64.4 100% 29.81 0.0
31 09:15 SW 10 10.00 Fair CLR 62.6 62.6 100% 29.8 0.0
31 08:55 SW 10 10.00 Fair CLR 60.8 60.8 100% 29.8 0.0
31 08:35 SW 12 10.00 Fair CLR 59 59 100% 29.79 0.0
31 08:15 SW 9 10.00 Fair CLR 59 59 100% 29.79 0.0
31 07:55 SW 12 8.00 Fair CLR 57.2 57.2 100% 29.79 0.0
31 07:35 SW 10 8.00 Fair CLR 57.2 57.2 100% 29.78 0.0
31 07:15 SW 9 7.00 Fair CLR 55.4 55.4 100% 29.78 0.0
31 06:55 SW 8 7.00 Fair CLR 55.4 55.4 100% 29.77 0.0
31 06:35 SW 9 8.00 Fair CLR 57.2 57.2 100% 29.77 0.0
31 06:15 SW 9 9.00 Fair CLR 57.2 57.2 100% 29.77 0.0
31 05:55 W 10 10.00 Fair CLR 59 59 100% 29.77 0.0
31 05:35 W 14 10.00 Fair CLR 59 59 100% 29.77 0.0
31 05:15 W 12 8.00 Fair CLR 60.8 60.8 100% 29.76 0.0
31 04:55 W 12 7.00 Fair CLR 60.8 60.8 100% 29.75 0.0
31 04:35 W 12 7.00 Fair CLR 60.8 60.8 100% 29.75 0.0
31 04:15 W 10 8.00 Partly Cloudy SCT006 62.6 62.6 100% 29.75 0.0
31 03:55 W 14 10.00 Mostly Cloudy BKN007 62.6 62.6 100% 29.74 0.0
31 03:35 W 9 10.00 Mostly Cloudy FEW006 BKN028 62.6 62.6 100% 29.74 0.0
31 03:15 W 10 10.00 Overcast SCT005 OVC029 64.4 64.4 100% 29.74 0.0
31 02:55 W 9 G 16 10.00 Overcast BKN005 BKN014 OVC026 64.4 64.4 100% 29.73 0.0
31 02:35 W 10 10.00 Overcast OVC024 64.4 64.4 100% 29.73 0.0
31 02:15 W 14 10.00 Mostly Cloudy FEW012 BKN027 BKN032 62.6 62.6 100% 29.72 0.0
31 01:55 W 8 10.00 Mostly Cloudy BKN010 BKN013 BKN019 62.6 62.6 100% 29.71 0.0
31 01:35 W 14 10.00 Mostly Cloudy SCT008 SCT013 BKN020 64.4 64.4 100% 29.72 0.0
31 01:15 Calm 10.00 Mostly Cloudy BKN012 64.4 64.4 100% 29.7 0.0
31 00:55 W 5 10.00 Mostly Cloudy SCT005 BKN009 BKN012 64.4 64.4 100% 29.69 0.0
31 00:35 E 7 10.00 Overcast OVC005 66.2 66.2 100% 29.67 0.0
31 00:15 Vrbl 6 5.00 Light Rain BKN005 OVC008 66.2 66.2 100% 29.68 0.0
30 23:55 N 8 2.50 Rain BKN003 BKN008 OVC030 66.2 66.2 100% 29.69 0.0
Date Time (cdt) Wind (mph) Vis. (mi.) Weather Sky Cond. Air Dwpt Max. Min. Relative Humidity Wind Chill (°F) Heat Index (°F) altimeter (in) sea level (mb) 1 hr 3 hr 6 hr
6 hour
Temperature (ºF) Pressure Precipitation (in)